PWSweather.com
Personal Weather Stations
Station Observations
UISISLE1
Newport, Isle ofWight, ISLE OF WIGHT PO30 2JX

NewportIsle ofWight, ISLE OF WIGHT PO30 2JX

Lat: 50.72, Lon: -1.27

Elevation: 45

Station Type: Davis Vantage Pro Plus

http://www.isleofwightweather.co.uk

High Low Average
Temperature 49.8°F9.9°F 39.1°F3.9°F 45.9°F7.7°F
Dew Point 46.6°F8.1°F 35.6°F2.0°F 42.6°F5.9°F
Winds 7.4 mph -11.9 mph - Calm Calm 3.4 mph 5.5 mph
Wind Gusts 13.0 mph20.9 mph 2.0 mph3.2 mph 6.4 mph10.3 mph
Humidity 94% 81% 88%
Pressure 30.25 in1024.40 in 29.97 in1014.90 in -
Precipitation 0.00 in0.00 in - -
Hour Temp Dew Point Humidity Winds Wind Gusts Pressure Precip Precip Rate Daily Precip Total
12:00 AM 41.9°F5.5°C 37.7°F3.2°C 85% Calm Calm 2.0 mph3.2 kmh 30.25 in1024.4 mb - 0.00 in0.0 mm 0.00 in0.0 mm
12:15 AM 41.4°F5.2°C 37.2°F2.9°C 85% 1.5 mph WSW2.4 kmh WSW 3.0 mph4.8 kmh 30.24 in1024.0 mb - 0.00 in0.0 mm 0.00 in0.0 mm
12:30 AM 40.9°F4.9°C 37.0°F2.8°C 86% 2.0 mph WSW3.2 kmh WSW 3.0 mph4.8 kmh 30.25 in1024.4 mb - 0.00 in0.0 mm 0.00 in0.0 mm
12:45 AM 40.6°F4.8°C 36.7°F2.6°C 86% 1.5 mph W2.4 kmh W 3.0 mph4.8 kmh 30.25 in1024.4 mb - 0.00 in0.0 mm 0.00 in0.0 mm
01:00 AM 40.3°F4.6°C 36.7°F2.6°C 87% 1.1 mph SW1.8 kmh SW 2.0 mph3.2 kmh 30.25 in1024.4 mb - 0.00 in0.0 mm 0.00 in0.0 mm
01:15 AM 40.1°F4.5°C 36.5°F2.5°C 87% 1.5 mph WSW2.4 kmh WSW 3.0 mph4.8 kmh 30.25 in1024.4 mb - 0.00 in0.0 mm 0.00 in0.0 mm
01:30 AM 40.0°F4.4°C 36.7°F2.6°C 88% 1.5 mph WSW2.4 kmh WSW 3.0 mph4.8 kmh 30.24 in1024.0 mb - 0.00 in0.0 mm 0.00 in0.0 mm
01:45 AM 39.8°F4.3°C 36.5°F2.5°C 88% 0.7 mph WSW1.1 kmh WSW 2.0 mph3.2 kmh 30.24 in1024.0 mb - 0.00 in0.0 mm 0.00 in0.0 mm
02:00 AM 39.1°F3.9°C 35.6°F2.0°C 87% 1.0 mph SW1.6 kmh SW 2.0 mph3.2 kmh 30.24 in1024.0 mb - 0.00 in0.0 mm 0.00 in0.0 mm
02:15 AM 39.1°F3.9°C 35.9°F2.2°C 88% 1.7 mph SW2.7 kmh SW 4.0 mph6.4 kmh 30.24 in1024.0 mb - 0.00 in0.0 mm 0.00 in0.0 mm
02:30 AM 39.3°F4.1°C 36.0°F2.2°C 88% 0.7 mph WSW1.1 kmh WSW 2.0 mph3.2 kmh 30.23 in1023.7 mb - 0.00 in0.0 mm 0.00 in0.0 mm
02:45 AM 39.5°F4.2°C 36.5°F2.5°C 89% 0.5 mph WSW0.8 kmh WSW 2.0 mph3.2 kmh 30.23 in1023.7 mb - 0.00 in0.0 mm 0.00 in0.0 mm
03:00 AM 39.8°F4.3°C 36.8°F2.7°C 89% 0.7 mph WSW1.1 kmh WSW 2.0 mph3.2 kmh 30.23 in1023.7 mb - 0.00 in0.0 mm 0.00 in0.0 mm
03:15 AM 40.2°F4.6°C 37.2°F2.9°C 89% 2.3 mph SW3.7 kmh SW 4.0 mph6.4 kmh 30.23 in1023.7 mb - 0.00 in0.0 mm 0.00 in0.0 mm
03:30 AM 40.8°F4.9°C 37.9°F3.3°C 89% 2.5 mph SW4.0 kmh SW 4.0 mph6.4 kmh 30.22 in1023.4 mb - 0.00 in0.0 mm 0.00 in0.0 mm
03:45 AM 41.3°F5.2°C 38.3°F3.5°C 89% 2.5 mph SW4.0 kmh SW 4.0 mph6.4 kmh 30.22 in1023.4 mb - 0.00 in0.0 mm 0.00 in0.0 mm
04:00 AM 41.9°F5.5°C 38.9°F3.8°C 89% 1.4 mph WSW2.3 kmh WSW 2.0 mph3.2 kmh 30.22 in1023.4 mb - 0.00 in0.0 mm 0.00 in0.0 mm
04:15 AM 42.5°F5.8°C 39.5°F4.2°C 89% 4.3 mph WSW6.9 kmh WSW 9.0 mph14.5 kmh 30.22 in1023.4 mb - 0.00 in0.0 mm 0.00 in0.0 mm
04:30 AM 43.1°F6.2°C 40.1°F4.5°C 89% 0.9 mph WSW1.4 kmh WSW 4.1 mph6.6 kmh 30.21 in1023.0 mb - 0.00 in0.0 mm 0.00 in0.0 mm
04:45 AM 43.5°F6.4°C 40.5°F4.7°C 89% 1.7 mph SW2.7 kmh SW 4.0 mph6.4 kmh 30.21 in1023.0 mb - 0.00 in0.0 mm 0.00 in0.0 mm
05:00 AM 43.8°F6.6°C 40.8°F4.9°C 89% 3.4 mph W5.5 kmh W 6.2 mph10.0 kmh 30.21 in1023.0 mb - 0.00 in0.0 mm 0.00 in0.0 mm
05:15 AM 44.0°F6.7°C 40.7°F4.8°C 88% 2.4 mph W3.9 kmh W 3.0 mph4.8 kmh 30.20 in1022.7 mb - 0.00 in0.0 mm 0.00 in0.0 mm
05:30 AM 44.1°F6.7°C 40.8°F4.9°C 88% 0.9 mph WSW1.4 kmh WSW 3.0 mph4.8 kmh 30.20 in1022.7 mb - 0.00 in0.0 mm 0.00 in0.0 mm
05:45 AM 44.2°F6.8°C 40.6°F4.8°C 87% 1.8 mph SW2.9 kmh SW 3.0 mph4.8 kmh 30.20 in1022.7 mb - 0.00 in0.0 mm 0.00 in0.0 mm
06:00 AM 44.4°F6.9°C 40.8°F4.9°C 87% 2.0 mph WSW3.2 kmh WSW 5.0 mph8.0 kmh 30.20 in1022.7 mb - 0.00 in0.0 mm 0.00 in0.0 mm
06:15 AM 44.5°F6.9°C 40.9°F4.9°C 87% 3.1 mph WSW5.0 kmh WSW 8.2 mph13.2 kmh 30.20 in1022.7 mb - 0.00 in0.0 mm 0.00 in0.0 mm
06:30 AM 44.6°F7.0°C 41.0°F5.0°C 87% 1.7 mph SW2.7 kmh SW 3.1 mph5.0 kmh 30.20 in1022.7 mb - 0.00 in0.0 mm 0.00 in0.0 mm
06:45 AM 44.7°F7.1°C 41.1°F5.1°C 87% 0.6 mph SW1.0 kmh SW 2.0 mph3.2 kmh 30.20 in1022.7 mb - 0.00 in0.0 mm 0.00 in0.0 mm
07:00 AM 44.7°F7.1°C 41.1°F5.1°C 87% 0.5 mph WSW0.8 kmh WSW 3.0 mph4.8 kmh 30.19 in1022.4 mb - 0.00 in0.0 mm 0.00 in0.0 mm
07:15 AM 44.8°F7.1°C 41.5°F5.3°C 88% 3.0 mph WSW4.8 kmh WSW 6.0 mph9.7 kmh 30.20 in1022.7 mb - 0.00 in0.0 mm 0.00 in0.0 mm
07:30 AM 45.0°F7.2°C 41.7°F5.4°C 88% 2.5 mph WSW4.0 kmh WSW 7.0 mph11.3 kmh 30.20 in1022.7 mb - 0.00 in0.0 mm 0.00 in0.0 mm
07:45 AM 45.3°F7.4°C 42.0°F5.6°C 88% 2.9 mph W4.7 kmh W 4.0 mph6.4 kmh 30.20 in1022.7 mb - 0.00 in0.0 mm 0.00 in0.0 mm
08:00 AM 45.4°F7.4°C 42.1°F5.6°C 88% 2.3 mph WSW3.7 kmh WSW 5.0 mph8.0 kmh 30.20 in1022.7 mb - 0.00 in0.0 mm 0.00 in0.0 mm
08:15 AM 45.5°F7.5°C 42.1°F5.6°C 88% 2.0 mph WSW3.2 kmh WSW 5.0 mph8.0 kmh 30.20 in1022.7 mb - 0.00 in0.0 mm 0.00 in0.0 mm
08:30 AM 45.5°F7.5°C 42.2°F5.7°C 88% 3.8 mph WSW6.1 kmh WSW 5.0 mph8.0 kmh 30.19 in1022.4 mb - 0.00 in0.0 mm 0.00 in0.0 mm
08:45 AM 45.6°F7.6°C 42.3°F5.7°C 88% 2.9 mph WSW4.7 kmh WSW 7.2 mph11.6 kmh 30.19 in1022.4 mb - 0.00 in0.0 mm 0.00 in0.0 mm
09:00 AM 45.9°F7.7°C 42.5°F5.8°C 88% 3.6 mph WSW5.8 kmh WSW 6.0 mph9.7 kmh 30.19 in1022.4 mb - 0.00 in0.0 mm 0.00 in0.0 mm
09:15 AM 46.2°F7.9°C 42.9°F6.1°C 88% 3.4 mph WSW5.5 kmh WSW 8.0 mph12.9 kmh 30.20 in1022.7 mb - 0.00 in0.0 mm 0.00 in0.0 mm
09:30 AM 46.5°F8.1°C 42.8°F6.0°C 87% 2.5 mph W4.0 kmh W 9.3 mph15.0 kmh 30.19 in1022.4 mb - 0.00 in0.0 mm 0.00 in0.0 mm
09:45 AM 46.8°F8.2°C 43.1°F6.2°C 87% 2.4 mph WSW3.9 kmh WSW 8.0 mph12.9 kmh 30.19 in1022.4 mb - 0.00 in0.0 mm 0.00 in0.0 mm
10:00 AM 47.0°F8.3°C 43.0°F6.1°C 86% 0.4 mph W0.6 kmh W 2.0 mph3.2 kmh 30.19 in1022.4 mb - 0.00 in0.0 mm 0.00 in0.0 mm
10:15 AM 47.3°F8.5°C 43.3°F6.3°C 86% 5.0 mph WSW8.0 kmh WSW 6.0 mph9.7 kmh 30.19 in1022.4 mb - 0.00 in0.0 mm 0.00 in0.0 mm
10:30 AM 47.6°F8.7°C 43.9°F6.6°C 87% 1.4 mph WSW2.3 kmh WSW 5.0 mph8.0 kmh 30.19 in1022.4 mb - 0.00 in0.0 mm 0.00 in0.0 mm
10:45 AM 47.9°F8.8°C 44.2°F6.8°C 87% 5.2 mph W8.4 kmh W 8.0 mph12.9 kmh 30.19 in1022.4 mb - 0.00 in0.0 mm 0.00 in0.0 mm
11:00 AM 48.1°F8.9°C 44.7°F7.1°C 88% 6.7 mph W10.8 kmh W 11.0 mph17.7 kmh 30.18 in1022.0 mb - 0.00 in0.0 mm 0.00 in0.0 mm
11:15 AM 48.2°F9.0°C 45.1°F7.3°C 89% 1.5 mph W2.4 kmh W 7.0 mph11.3 kmh 30.17 in1021.7 mb - 0.00 in0.0 mm 0.00 in0.0 mm
11:30 AM 48.3°F9.1°C 45.2°F7.3°C 89% 4.8 mph W7.7 kmh W 8.2 mph13.2 kmh 30.16 in1021.3 mb - 0.00 in0.0 mm 0.00 in0.0 mm
11:45 AM 48.5°F9.2°C 45.4°F7.4°C 89% 7.2 mph WSW11.6 kmh WSW 12.0 mph19.3 kmh 30.16 in1021.3 mb - 0.00 in0.0 mm 0.00 in0.0 mm
12:00 PM 48.4°F9.1°C 45.3°F7.4°C 89% 3.2 mph WSW5.1 kmh WSW 6.0 mph9.7 kmh 30.15 in1021.0 mb - 0.00 in0.0 mm 0.00 in0.0 mm
12:15 PM 48.7°F9.3°C 45.9°F7.7°C 90% 2.4 mph WSW3.9 kmh WSW 6.0 mph9.7 kmh 30.15 in1021.0 mb - 0.00 in0.0 mm 0.00 in0.0 mm
12:30 PM 49.0°F9.4°C 45.9°F7.7°C 89% 4.6 mph SW7.4 kmh SW 8.0 mph12.9 kmh 30.14 in1020.7 mb - 0.00 in0.0 mm 0.00 in0.0 mm
12:45 PM 49.7°F9.8°C 46.6°F8.1°C 89% 7.1 mph W11.4 kmh W 10.0 mph16.1 kmh 30.13 in1020.3 mb - 0.00 in0.0 mm 0.00 in0.0 mm
01:00 PM 49.8°F9.9°C 46.1°F7.8°C 87% 6.6 mph WSW10.6 kmh WSW 7.2 mph11.6 kmh 30.13 in1020.3 mb - 0.00 in0.0 mm 0.00 in0.0 mm
01:15 PM 49.5°F9.7°C 45.5°F7.5°C 86% 5.6 mph SW9.0 kmh SW 8.0 mph12.9 kmh 30.13 in1020.3 mb - 0.00 in0.0 mm 0.00 in0.0 mm
01:30 PM 49.3°F9.6°C 44.7°F7.1°C 84% 5.3 mph W8.5 kmh W 12.4 mph20.0 kmh 30.12 in1020.0 mb - 0.00 in0.0 mm 0.00 in0.0 mm
01:45 PM 49.1°F9.5°C 44.2°F6.8°C 83% 6.1 mph WSW9.8 kmh WSW 7.0 mph11.3 kmh 30.12 in1020.0 mb - 0.00 in0.0 mm 0.00 in0.0 mm
02:00 PM 49.3°F9.6°C 44.3°F6.8°C 83% 6.8 mph SW10.9 kmh SW 10.0 mph16.1 kmh 30.12 in1020.0 mb - 0.00 in0.0 mm 0.00 in0.0 mm
02:15 PM 49.2°F9.6°C 44.3°F6.8°C 83% 5.5 mph WSW8.9 kmh WSW 11.0 mph17.7 kmh 30.11 in1019.6 mb - 0.00 in0.0 mm 0.00 in0.0 mm
02:30 PM 49.1°F9.5°C 44.5°F6.9°C 84% 3.7 mph W6.0 kmh W 5.0 mph8.0 kmh 30.11 in1019.6 mb - 0.00 in0.0 mm 0.00 in0.0 mm
02:45 PM 49.0°F9.4°C 44.7°F7.1°C 85% 3.9 mph WSW6.3 kmh WSW 7.0 mph11.3 kmh 30.10 in1019.3 mb - 0.00 in0.0 mm 0.00 in0.0 mm
03:00 PM 48.8°F9.3°C 44.8°F7.1°C 86% 6.6 mph W10.6 kmh W 9.3 mph15.0 kmh 30.10 in1019.3 mb - 0.00 in0.0 mm 0.00 in0.0 mm
03:15 PM 48.5°F9.2°C 44.8°F7.1°C 87% 3.5 mph SW5.6 kmh SW 6.2 mph10.0 kmh 30.10 in1019.3 mb - 0.00 in0.0 mm 0.00 in0.0 mm
03:30 PM 48.2°F9.0°C 44.5°F6.9°C 87% 6.0 mph W9.7 kmh W 8.0 mph12.9 kmh 30.10 in1019.3 mb - 0.00 in0.0 mm 0.00 in0.0 mm
03:45 PM 48.1°F8.9°C 43.8°F6.6°C 85% 3.5 mph WSW5.6 kmh WSW 7.0 mph11.3 kmh 30.09 in1019.0 mb - 0.00 in0.0 mm 0.00 in0.0 mm
04:00 PM 48.3°F9.1°C 43.7°F6.5°C 84% 3.7 mph WSW6.0 kmh WSW 7.0 mph11.3 kmh 30.09 in1019.0 mb - 0.00 in0.0 mm 0.00 in0.0 mm
04:15 PM 48.5°F9.2°C 43.9°F6.6°C 84% 3.6 mph WSW5.8 kmh WSW 10.0 mph16.1 kmh 30.09 in1019.0 mb - 0.00 in0.0 mm 0.00 in0.0 mm
04:30 PM 48.3°F9.1°C 43.4°F6.3°C 83% 3.7 mph SW6.0 kmh SW 8.2 mph13.2 kmh 30.09 in1019.0 mb - 0.00 in0.0 mm 0.00 in0.0 mm
04:45 PM 48.3°F9.1°C 42.7°F5.9°C 81% 5.4 mph WSW8.7 kmh WSW 9.3 mph15.0 kmh 30.08 in1018.6 mb - 0.00 in0.0 mm 0.00 in0.0 mm
05:00 PM 48.3°F9.1°C 43.1°F6.2°C 82% 2.3 mph W3.7 kmh W 7.0 mph11.3 kmh 30.08 in1018.6 mb - 0.00 in0.0 mm 0.00 in0.0 mm
05:15 PM 48.4°F9.1°C 43.2°F6.2°C 82% 4.5 mph WSW7.2 kmh WSW 8.0 mph12.9 kmh 30.07 in1018.3 mb - 0.00 in0.0 mm 0.00 in0.0 mm
05:30 PM 48.5°F9.2°C 43.6°F6.4°C 83% 6.7 mph SW10.8 kmh SW 8.0 mph12.9 kmh 30.07 in1018.3 mb - 0.00 in0.0 mm 0.00 in0.0 mm
05:45 PM 48.5°F9.2°C 44.2°F6.8°C 85% 5.3 mph WSW8.5 kmh WSW 11.0 mph17.7 kmh 30.07 in1018.3 mb - 0.00 in0.0 mm 0.00 in0.0 mm
06:00 PM 48.4°F9.1°C 44.1°F6.7°C 85% 3.2 mph WSW5.1 kmh WSW 6.0 mph9.7 kmh 30.07 in1018.3 mb - 0.00 in0.0 mm 0.00 in0.0 mm
06:15 PM 48.3°F9.1°C 44.3°F6.8°C 86% 5.0 mph SW8.0 kmh SW 11.0 mph17.7 kmh 30.07 in1018.3 mb - 0.00 in0.0 mm 0.00 in0.0 mm
06:30 PM 48.2°F9.0°C 44.8°F7.1°C 88% 7.4 mph WSW11.9 kmh WSW 13.0 mph20.9 kmh 30.06 in1017.9 mb - 0.00 in0.0 mm 0.00 in0.0 mm
06:45 PM 47.8°F8.8°C 44.8°F7.1°C 89% 5.3 mph WSW8.5 kmh WSW 9.0 mph14.5 kmh 30.06 in1017.9 mb - 0.00 in0.0 mm 0.00 in0.0 mm
07:00 PM 47.5°F8.6°C 44.7°F7.1°C 90% 3.2 mph SW5.1 kmh SW 5.0 mph8.0 kmh 30.06 in1017.9 mb - 0.00 in0.0 mm 0.00 in0.0 mm
07:15 PM 47.1°F8.4°C 44.3°F6.8°C 90% 6.6 mph SSW10.6 kmh SSW 13.0 mph20.9 kmh 30.05 in1017.6 mb - 0.00 in0.0 mm 0.00 in0.0 mm
07:30 PM 47.0°F8.3°C 44.5°F6.9°C 91% 4.4 mph WSW7.1 kmh WSW 10.0 mph16.1 kmh 30.05 in1017.6 mb - 0.00 in0.0 mm 0.00 in0.0 mm
07:45 PM 46.9°F8.3°C 44.4°F6.9°C 91% 2.2 mph SW3.5 kmh SW 6.0 mph9.7 kmh 30.04 in1017.3 mb - 0.00 in0.0 mm 0.00 in0.0 mm
08:00 PM 47.0°F8.3°C 44.8°F7.1°C 92% 1.9 mph WSW3.1 kmh WSW 4.0 mph6.4 kmh 30.04 in1017.3 mb - 0.00 in0.0 mm 0.00 in0.0 mm
08:15 PM 47.1°F8.4°C 44.9°F7.2°C 92% 2.6 mph W4.2 kmh W 5.0 mph8.0 kmh 30.04 in1017.3 mb - 0.00 in0.0 mm 0.00 in0.0 mm
08:30 PM 47.1°F8.4°C 44.9°F7.2°C 92% 4.0 mph WSW6.4 kmh WSW 5.0 mph8.0 kmh 30.03 in1016.9 mb - 0.00 in0.0 mm 0.00 in0.0 mm
08:45 PM 47.1°F8.4°C 44.9°F7.2°C 92% 1.9 mph WSW3.1 kmh WSW 4.1 mph6.6 kmh 30.03 in1016.9 mb - 0.00 in0.0 mm 0.00 in0.0 mm
09:00 PM 47.1°F8.4°C 45.2°F7.3°C 93% 4.2 mph WSW6.8 kmh WSW 7.0 mph11.3 kmh 30.02 in1016.6 mb - 0.00 in0.0 mm 0.00 in0.0 mm
09:15 PM 47.2°F8.4°C 45.2°F7.3°C 93% 3.6 mph WSW5.8 kmh WSW 6.0 mph9.7 kmh 30.02 in1016.6 mb - 0.00 in0.0 mm 0.00 in0.0 mm
09:30 PM 47.1°F8.4°C 45.2°F7.3°C 93% 1.4 mph WSW2.3 kmh WSW 6.0 mph9.7 kmh 30.02 in1016.6 mb - 0.00 in0.0 mm 0.00 in0.0 mm
09:45 PM 47.1°F8.4°C 45.5°F7.5°C 94% 4.5 mph WSW7.2 kmh WSW 8.0 mph12.9 kmh 30.01 in1016.3 mb - 0.00 in0.0 mm 0.00 in0.0 mm
10:00 PM 47.1°F8.4°C 45.5°F7.5°C 94% 2.5 mph WSW4.0 kmh WSW 5.0 mph8.0 kmh 30.01 in1016.3 mb - 0.00 in0.0 mm 0.00 in0.0 mm
10:15 PM 47.3°F8.5°C 45.7°F7.6°C 94% 4.0 mph S6.4 kmh S 12.0 mph19.3 kmh 30.00 in1015.9 mb - 0.00 in0.0 mm 0.00 in0.0 mm
10:30 PM 47.4°F8.6°C 45.8°F7.7°C 94% 4.8 mph SSW7.7 kmh SSW 7.0 mph11.3 kmh 29.99 in1015.6 mb - 0.00 in0.0 mm 0.00 in0.0 mm
10:45 PM 47.4°F8.6°C 45.8°F7.7°C 94% 5.6 mph S9.0 kmh S 8.0 mph12.9 kmh 29.99 in1015.6 mb - 0.00 in0.0 mm 0.00 in0.0 mm
11:00 PM 47.4°F8.6°C 45.5°F7.5°C 93% 4.9 mph SW7.9 kmh SW 9.0 mph14.5 kmh 29.98 in1015.2 mb - 0.00 in0.0 mm 0.00 in0.0 mm
11:15 PM 47.8°F8.8°C 46.2°F7.9°C 94% 5.8 mph SW9.3 kmh SW 8.0 mph12.9 kmh 29.98 in1015.2 mb - 0.00 in0.0 mm 0.00 in0.0 mm
11:30 PM 47.7°F8.7°C 45.8°F7.7°C 93% 7.0 mph WSW11.3 kmh WSW 11.0 mph17.7 kmh 29.97 in1014.9 mb - 0.00 in0.0 mm 0.00 in0.0 mm
11:45 PM 47.5°F8.6°C 45.6°F7.6°C 93% 5.0 mph SW8.0 kmh SW 10.0 mph16.1 kmh 29.97 in1014.9 mb - 0.00 in0.0 mm 0.00 in0.0 mm